sensor_id;sensor_type;location;lat;lon;timestamp;P1;durP1;ratioP1;P2;durP2;ratioP2
56373;SDS011;58212;47.034;7.376;2022-10-30T00:00:08;11.88;;;4.40;;
56373;SDS011;58212;47.034;7.376;2022-10-30T00:02:39;9.15;;;4.32;;
56373;SDS011;58212;47.034;7.376;2022-10-30T00:05:08;9.68;;;4.93;;
56373;SDS011;58212;47.034;7.376;2022-10-30T00:07:35;7.75;;;4.40;;
56373;SDS011;58212;47.034;7.376;2022-10-30T00:10:03;10.30;;;4.50;;
56373;SDS011;58212;47.034;7.376;2022-10-30T00:12:32;8.52;;;4.15;;
56373;SDS011;58212;47.034;7.376;2022-10-30T00:14:59;11.05;;;4.32;;
56373;SDS011;58212;47.034;7.376;2022-10-30T00:17:27;8.23;;;4.40;;
56373;SDS011;58212;47.034;7.376;2022-10-30T00:19:55;9.48;;;4.28;;
56373;SDS011;58212;47.034;7.376;2022-10-30T00:22:24;9.77;;;4.32;;
56373;SDS011;58212;47.034;7.376;2022-10-30T00:24:51;9.63;;;4.28;;
56373;SDS011;58212;47.034;7.376;2022-10-30T00:27:19;12.90;;;4.78;;
56373;SDS011;58212;47.034;7.376;2022-10-30T00:29:46;7.68;;;4.65;;
56373;SDS011;58212;47.034;7.376;2022-10-30T00:32:14;8.38;;;4.25;;
56373;SDS011;58212;47.034;7.376;2022-10-30T00:34:42;10.65;;;4.07;;
56373;SDS011;58212;47.034;7.376;2022-10-30T00:37:09;10.27;;;4.47;;
56373;SDS011;58212;47.034;7.376;2022-10-30T00:39:40;8.25;;;3.70;;
56373;SDS011;58212;47.034;7.376;2022-10-30T00:42:09;10.18;;;4.50;;
56373;SDS011;58212;47.034;7.376;2022-10-30T00:44:40;10.38;;;4.07;;
56373;SDS011;58212;47.034;7.376;2022-10-30T00:47:16;10.77;;;4.45;;
56373;SDS011;58212;47.034;7.376;2022-10-30T00:49:50;11.10;;;4.07;;
56373;SDS011;58212;47.034;7.376;2022-10-30T00:52:23;13.52;;;4.22;;
56373;SDS011;58212;47.034;7.376;2022-10-30T00:54:55;9.05;;;4.10;;
56373;SDS011;58212;47.034;7.376;2022-10-30T00:57:26;10.38;;;4.40;;
56373;SDS011;58212;47.034;7.376;2022-10-30T00:59:57;10.48;;;4.53;;
56373;SDS011;58212;47.034;7.376;2022-10-30T01:02:26;10.27;;;4.57;;
56373;SDS011;58212;47.034;7.376;2022-10-30T01:04:54;10.13;;;4.20;;
56373;SDS011;58212;47.034;7.376;2022-10-30T01:07:22;7.38;;;4.07;;
56373;SDS011;58212;47.034;7.376;2022-10-30T01:09:49;8.82;;;4.30;;
56373;SDS011;58212;47.034;7.376;2022-10-30T01:12:18;9.20;;;4.50;;
56373;SDS011;58212;47.034;7.376;2022-10-30T01:14:46;7.68;;;4.28;;
56373;SDS011;58212;47.034;7.376;2022-10-30T01:17:25;12.98;;;4.57;;
56373;SDS011;58212;47.034;7.376;2022-10-30T01:20:06;10.75;;;3.85;;
56373;SDS011;58212;47.034;7.376;2022-10-30T01:22:50;7.93;;;4.00;;
56373;SDS011;58212;47.034;7.376;2022-10-30T01:25:28;10.85;;;4.15;;
56373;SDS011;58212;47.034;7.376;2022-10-30T01:28:16;10.23;;;4.10;;
56373;SDS011;58212;47.034;7.376;2022-10-30T01:30:59;10.77;;;4.40;;
56373;SDS011;58212;47.034;7.376;2022-10-30T01:33:36;9.65;;;4.38;;
56373;SDS011;58212;47.034;7.376;2022-10-30T01:36:15;11.90;;;4.80;;
56373;SDS011;58212;47.034;7.376;2022-10-30T01:38:46;11.18;;;4.57;;
56373;SDS011;58212;47.034;7.376;2022-10-30T01:41:18;11.65;;;4.68;;
56373;SDS011;58212;47.034;7.376;2022-10-30T01:43:49;10.38;;;4.53;;
56373;SDS011;58212;47.034;7.376;2022-10-30T01:49:24;12.65;;;5.10;;
56373;SDS011;58212;47.034;7.376;2022-10-30T01:52:05;11.35;;;4.70;;
56373;SDS011;58212;47.034;7.376;2022-10-30T01:54:45;10.75;;;5.28;;
56373;SDS011;58212;47.034;7.376;2022-10-30T01:57:28;14.15;;;4.90;;
56373;SDS011;58212;47.034;7.376;2022-10-30T02:00:07;15.02;;;5.57;;
56373;SDS011;58212;47.034;7.376;2022-10-30T02:02:39;13.68;;;5.00;;
56373;SDS011;58212;47.034;7.376;2022-10-30T02:05:11;10.00;;;4.13;;
56373;SDS011;58212;47.034;7.376;2022-10-30T02:07:46;13.23;;;4.65;;
56373;SDS011;58212;47.034;7.376;2022-10-30T02:10:14;10.73;;;4.82;;
56373;SDS011;58212;47.034;7.376;2022-10-30T02:12:42;7.40;;;4.45;;
56373;SDS011;58212;47.034;7.376;2022-10-30T02:15:13;8.20;;;4.20;;
56373;SDS011;58212;47.034;7.376;2022-10-30T02:17:46;9.20;;;4.55;;
56373;SDS011;58212;47.034;7.376;2022-10-30T02:20:16;12.05;;;4.45;;
56373;SDS011;58212;47.034;7.376;2022-10-30T02:22:45;11.10;;;4.55;;
56373;SDS011;58212;47.034;7.376;2022-10-30T02:25:14;8.45;;;4.22;;
56373;SDS011;58212;47.034;7.376;2022-10-30T02:27:44;8.80;;;4.30;;
56373;SDS011;58212;47.034;7.376;2022-10-30T02:30:11;8.18;;;4.43;;
56373;SDS011;58212;47.034;7.376;2022-10-30T02:32:41;8.10;;;4.20;;
56373;SDS011;58212;47.034;7.376;2022-10-30T02:35:11;8.88;;;4.80;;
56373;SDS011;58212;47.034;7.376;2022-10-30T02:37:41;11.23;;;4.88;;
56373;SDS011;58212;47.034;7.376;2022-10-30T02:40:09;9.57;;;4.43;;
56373;SDS011;58212;47.034;7.376;2022-10-30T02:42:37;9.88;;;4.68;;
56373;SDS011;58212;47.034;7.376;2022-10-30T02:45:05;8.73;;;4.57;;
56373;SDS011;58212;47.034;7.376;2022-10-30T02:47:34;9.82;;;4.25;;
56373;SDS011;58212;47.034;7.376;2022-10-30T02:50:01;9.50;;;3.97;;
56373;SDS011;58212;47.034;7.376;2022-10-30T02:52:29;6.95;;;4.20;;
56373;SDS011;58212;47.034;7.376;2022-10-30T02:55:02;7.88;;;4.47;;
56373;SDS011;58212;47.034;7.376;2022-10-30T02:57:31;10.98;;;4.47;;
56373;SDS011;58212;47.034;7.376;2022-10-30T02:59:59;9.00;;;4.75;;
56373;SDS011;58212;47.034;7.376;2022-10-30T03:02:28;8.40;;;4.45;;
56373;SDS011;58212;47.034;7.376;2022-10-30T03:04:56;8.35;;;4.90;;
56373;SDS011;58212;47.034;7.376;2022-10-30T03:07:24;8.18;;;4.70;;
56373;SDS011;58212;47.034;7.376;2022-10-30T03:09:51;10.23;;;4.57;;
56373;SDS011;58212;47.034;7.376;2022-10-30T03:12:21;9.32;;;4.95;;
56373;SDS011;58212;47.034;7.376;2022-10-30T03:14:50;10.43;;;4.97;;
56373;SDS011;58212;47.034;7.376;2022-10-30T03:17:18;7.28;;;4.50;;
56373;SDS011;58212;47.034;7.376;2022-10-30T03:19:47;13.25;;;4.97;;
56373;SDS011;58212;47.034;7.376;2022-10-30T03:22:17;9.48;;;4.75;;
56373;SDS011;58212;47.034;7.376;2022-10-30T03:24:46;10.18;;;4.53;;
56373;SDS011;58212;47.034;7.376;2022-10-30T03:27:14;12.90;;;5.00;;
56373;SDS011;58212;47.034;7.376;2022-10-30T03:29:43;13.40;;;4.55;;
56373;SDS011;58212;47.034;7.376;2022-10-30T03:32:11;14.32;;;5.13;;
56373;SDS011;58212;47.034;7.376;2022-10-30T03:34:44;11.15;;;4.55;;
56373;SDS011;58212;47.034;7.376;2022-10-30T03:37:11;10.55;;;4.68;;
56373;SDS011;58212;47.034;7.376;2022-10-30T03:39:38;10.73;;;5.22;;
56373;SDS011;58212;47.034;7.376;2022-10-30T03:42:06;9.07;;;4.32;;
56373;SDS011;58212;47.034;7.376;2022-10-30T03:44:33;7.88;;;4.60;;
56373;SDS011;58212;47.034;7.376;2022-10-30T03:47:04;11.55;;;4.85;;
56373;SDS011;58212;47.034;7.376;2022-10-30T03:49:37;11.55;;;4.03;;
56373;SDS011;58212;47.034;7.376;2022-10-30T03:52:10;7.13;;;4.45;;
56373;SDS011;58212;47.034;7.376;2022-10-30T03:54:37;8.15;;;4.40;;
56373;SDS011;58212;47.034;7.376;2022-10-30T03:57:04;9.63;;;4.40;;
56373;SDS011;58212;47.034;7.376;2022-10-30T04:00:01;10.73;;;5.05;;
56373;SDS011;58212;47.034;7.376;2022-10-30T04:02:53;9.27;;;4.50;;
56373;SDS011;58212;47.034;7.376;2022-10-30T04:05:22;9.73;;;4.18;;
56373;SDS011;58212;47.034;7.376;2022-10-30T04:07:56;8.48;;;4.47;;
56373;SDS011;58212;47.034;7.376;2022-10-30T04:10:25;8.70;;;4.18;;
56373;SDS011;58212;47.034;7.376;2022-10-30T04:12:58;11.25;;;4.40;;
56373;SDS011;58212;47.034;7.376;2022-10-30T04:15:29;6.05;;;3.78;;
56373;SDS011;58212;47.034;7.376;2022-10-30T04:17:58;9.77;;;3.88;;
56373;SDS011;58212;47.034;7.376;2022-10-30T04:20:33;9.10;;;4.25;;
56373;SDS011;58212;47.034;7.376;2022-10-30T04:23:01;10.07;;;4.63;;
56373;SDS011;58212;47.034;7.376;2022-10-30T04:25:31;7.30;;;3.53;;
56373;SDS011;58212;47.034;7.376;2022-10-30T04:28:00;10.82;;;4.10;;
56373;SDS011;58212;47.034;7.376;2022-10-30T04:30:27;10.45;;;4.22;;
56373;SDS011;58212;47.034;7.376;2022-10-30T04:33:00;12.60;;;4.82;;
56373;SDS011;58212;47.034;7.376;2022-10-30T04:35:30;11.50;;;4.00;;
56373;SDS011;58212;47.034;7.376;2022-10-30T04:38:00;10.93;;;4.68;;
56373;SDS011;58212;47.034;7.376;2022-10-30T04:40:33;9.20;;;4.75;;
56373;SDS011;58212;47.034;7.376;2022-10-30T04:43:05;10.38;;;4.18;;
56373;SDS011;58212;47.034;7.376;2022-10-30T04:45:33;9.75;;;3.90;;
56373;SDS011;58212;47.034;7.376;2022-10-30T04:48:04;7.72;;;4.05;;
56373;SDS011;58212;47.034;7.376;2022-10-30T04:50:36;7.95;;;4.45;;
56373;SDS011;58212;47.034;7.376;2022-10-30T04:53:06;10.48;;;4.13;;
56373;SDS011;58212;47.034;7.376;2022-10-30T04:55:37;10.00;;;4.22;;
56373;SDS011;58212;47.034;7.376;2022-10-30T04:58:04;9.95;;;4.32;;
56373;SDS011;58212;47.034;7.376;2022-10-30T05:00:35;12.50;;;4.45;;
56373;SDS011;58212;47.034;7.376;2022-10-30T05:03:15;10.65;;;4.53;;
56373;SDS011;58212;47.034;7.376;2022-10-30T05:05:45;11.48;;;4.38;;
56373;SDS011;58212;47.034;7.376;2022-10-30T05:08:12;6.22;;;3.75;;
56373;SDS011;58212;47.034;7.376;2022-10-30T05:10:40;10.00;;;3.78;;
56373;SDS011;58212;47.034;7.376;2022-10-30T05:13:08;8.68;;;3.75;;
56373;SDS011;58212;47.034;7.376;2022-10-30T05:15:36;10.55;;;4.35;;
56373;SDS011;58212;47.034;7.376;2022-10-30T05:18:03;10.75;;;4.07;;
56373;SDS011;58212;47.034;7.376;2022-10-30T05:20:32;8.15;;;3.80;;
56373;SDS011;58212;47.034;7.376;2022-10-30T05:23:00;8.57;;;4.15;;
56373;SDS011;58212;47.034;7.376;2022-10-30T05:25:27;10.63;;;3.83;;
56373;SDS011;58212;47.034;7.376;2022-10-30T05:27:57;9.15;;;3.78;;
56373;SDS011;58212;47.034;7.376;2022-10-30T05:30:25;7.50;;;3.83;;
56373;SDS011;58212;47.034;7.376;2022-10-30T05:32:56;8.18;;;3.55;;
56373;SDS011;58212;47.034;7.376;2022-10-30T05:35:23;9.98;;;4.43;;
56373;SDS011;58212;47.034;7.376;2022-10-30T05:37:55;8.02;;;3.97;;
56373;SDS011;58212;47.034;7.376;2022-10-30T05:40:27;11.18;;;4.40;;
56373;SDS011;58212;47.034;7.376;2022-10-30T05:42:54;10.13;;;4.40;;
56373;SDS011;58212;47.034;7.376;2022-10-30T05:45:22;7.18;;;3.67;;
56373;SDS011;58212;47.034;7.376;2022-10-30T05:47:54;7.75;;;3.63;;
56373;SDS011;58212;47.034;7.376;2022-10-30T05:50:22;9.75;;;4.32;;
56373;SDS011;58212;47.034;7.376;2022-10-30T05:53:10;9.25;;;3.72;;
56373;SDS011;58212;47.034;7.376;2022-10-30T05:55:38;8.40;;;4.13;;
56373;SDS011;58212;47.034;7.376;2022-10-30T05:58:12;6.95;;;3.85;;
56373;SDS011;58212;47.034;7.376;2022-10-30T06:00:43;6.85;;;3.58;;
56373;SDS011;58212;47.034;7.376;2022-10-30T06:03:16;11.55;;;3.72;;
56373;SDS011;58212;47.034;7.376;2022-10-30T06:05:45;10.05;;;4.78;;
56373;SDS011;58212;47.034;7.376;2022-10-30T06:08:15;8.23;;;3.85;;
56373;SDS011;58212;47.034;7.376;2022-10-30T06:10:44;9.75;;;4.40;;
56373;SDS011;58212;47.034;7.376;2022-10-30T06:13:19;8.90;;;3.88;;
56373;SDS011;58212;47.034;7.376;2022-10-30T06:15:55;9.13;;;4.03;;
56373;SDS011;58212;47.034;7.376;2022-10-30T06:18:24;7.38;;;3.75;;
56373;SDS011;58212;47.034;7.376;2022-10-30T06:20:53;10.25;;;4.07;;
56373;SDS011;58212;47.034;7.376;2022-10-30T06:23:40;9.13;;;3.75;;
56373;SDS011;58212;47.034;7.376;2022-10-30T06:26:36;12.05;;;4.45;;
56373;SDS011;58212;47.034;7.376;2022-10-30T06:29:08;6.45;;;3.58;;
56373;SDS011;58212;47.034;7.376;2022-10-30T06:31:35;6.88;;;3.58;;
56373;SDS011;58212;47.034;7.376;2022-10-30T06:34:02;8.43;;;3.92;;
56373;SDS011;58212;47.034;7.376;2022-10-30T06:36:32;11.88;;;4.10;;
56373;SDS011;58212;47.034;7.376;2022-10-30T06:39:01;10.63;;;4.65;;
56373;SDS011;58212;47.034;7.376;2022-10-30T06:41:36;10.77;;;4.65;;
56373;SDS011;58212;47.034;7.376;2022-10-30T06:44:17;7.25;;;3.78;;
56373;SDS011;58212;47.034;7.376;2022-10-30T06:46:45;10.50;;;3.88;;
56373;SDS011;58212;47.034;7.376;2022-10-30T06:49:12;8.85;;;3.78;;
56373;SDS011;58212;47.034;7.376;2022-10-30T06:51:39;10.55;;;3.92;;
56373;SDS011;58212;47.034;7.376;2022-10-30T06:54:08;10.32;;;3.88;;
56373;SDS011;58212;47.034;7.376;2022-10-30T06:56:38;10.27;;;3.80;;
56373;SDS011;58212;47.034;7.376;2022-10-30T06:59:15;11.80;;;4.38;;
56373;SDS011;58212;47.034;7.376;2022-10-30T07:02:05;10.13;;;4.88;;
56373;SDS011;58212;47.034;7.376;2022-10-30T07:04:46;5.93;;;3.78;;
56373;SDS011;58212;47.034;7.376;2022-10-30T07:07:16;10.48;;;4.30;;
56373;SDS011;58212;47.034;7.376;2022-10-30T07:09:45;13.20;;;4.22;;
56373;SDS011;58212;47.034;7.376;2022-10-30T07:12:14;11.40;;;4.00;;
56373;SDS011;58212;47.034;7.376;2022-10-30T07:15:05;7.28;;;3.10;;
56373;SDS011;58212;47.034;7.376;2022-10-30T07:17:38;7.28;;;3.80;;
56373;SDS011;58212;47.034;7.376;2022-10-30T07:20:14;5.47;;;3.53;;
56373;SDS011;58212;47.034;7.376;2022-10-30T07:22:41;10.27;;;4.25;;
56373;SDS011;58212;47.034;7.376;2022-10-30T07:25:10;10.95;;;3.70;;
56373;SDS011;58212;47.034;7.376;2022-10-30T07:27:54;8.10;;;3.78;;
56373;SDS011;58212;47.034;7.376;2022-10-30T07:30:53;9.70;;;5.40;;
56373;SDS011;58212;47.034;7.376;2022-10-30T07:33:40;12.73;;;6.50;;
56373;SDS011;58212;47.034;7.376;2022-10-30T07:36:37;8.93;;;5.47;;
56373;SDS011;58212;47.034;7.376;2022-10-30T07:39:24;9.38;;;5.40;;
56373;SDS011;58212;47.034;7.376;2022-10-30T07:42:02;11.80;;;5.75;;
56373;SDS011;58212;47.034;7.376;2022-10-30T07:44:41;9.80;;;6.68;;
56373;SDS011;58212;47.034;7.376;2022-10-30T07:47:25;14.05;;;6.78;;
56373;SDS011;58212;47.034;7.376;2022-10-30T07:50:01;11.60;;;6.28;;
56373;SDS011;58212;47.034;7.376;2022-10-30T07:52:31;11.25;;;6.47;;
56373;SDS011;58212;47.034;7.376;2022-10-30T07:54:59;10.50;;;6.28;;
56373;SDS011;58212;47.034;7.376;2022-10-30T07:57:46;10.40;;;6.40;;
56373;SDS011;58212;47.034;7.376;2022-10-30T08:00:42;10.93;;;7.32;;
56373;SDS011;58212;47.034;7.376;2022-10-30T08:03:19;15.75;;;9.32;;
56373;SDS011;58212;47.034;7.376;2022-10-30T08:06:09;13.88;;;9.80;;
56373;SDS011;58212;47.034;7.376;2022-10-30T08:08:37;12.55;;;10.05;;
56373;SDS011;58212;47.034;7.376;2022-10-30T08:11:13;14.73;;;11.02;;
56373;SDS011;58212;47.034;7.376;2022-10-30T08:13:41;12.93;;;9.60;;
56373;SDS011;58212;47.034;7.376;2022-10-30T08:16:11;14.57;;;9.88;;
56373;SDS011;58212;47.034;7.376;2022-10-30T08:18:39;12.07;;;9.20;;
56373;SDS011;58212;47.034;7.376;2022-10-30T08:21:07;12.80;;;10.02;;
56373;SDS011;58212;47.034;7.376;2022-10-30T08:23:36;12.55;;;8.48;;
56373;SDS011;58212;47.034;7.376;2022-10-30T08:26:10;13.50;;;10.55;;
56373;SDS011;58212;47.034;7.376;2022-10-30T08:28:37;11.77;;;9.70;;
56373;SDS011;58212;47.034;7.376;2022-10-30T08:31:09;15.10;;;10.73;;
56373;SDS011;58212;47.034;7.376;2022-10-30T08:33:55;11.10;;;9.70;;
56373;SDS011;58212;47.034;7.376;2022-10-30T08:36:27;12.95;;;9.68;;
56373;SDS011;58212;47.034;7.376;2022-10-30T08:38:54;13.15;;;10.18;;
56373;SDS011;58212;47.034;7.376;2022-10-30T08:41:46;14.82;;;10.07;;
56373;SDS011;58212;47.034;7.376;2022-10-30T08:44:15;11.57;;;8.27;;
56373;SDS011;58212;47.034;7.376;2022-10-30T08:47:18;14.30;;;9.50;;
56373;SDS011;58212;47.034;7.376;2022-10-30T08:49:46;13.68;;;9.10;;
56373;SDS011;58212;47.034;7.376;2022-10-30T08:52:16;13.52;;;9.50;;
56373;SDS011;58212;47.034;7.376;2022-10-30T08:54:47;15.68;;;9.90;;
56373;SDS011;58212;47.034;7.376;2022-10-30T08:57:15;13.23;;;9.23;;
56373;SDS011;58212;47.034;7.376;2022-10-30T08:59:42;11.02;;;9.10;;
56373;SDS011;58212;47.034;7.376;2022-10-30T09:02:25;13.77;;;10.32;;
56373;SDS011;58212;47.034;7.376;2022-10-30T09:05:28;11.88;;;9.98;;
56373;SDS011;58212;47.034;7.376;2022-10-30T09:08:21;14.75;;;10.55;;
56373;SDS011;58212;47.034;7.376;2022-10-30T09:11:08;12.30;;;9.68;;
56373;SDS011;58212;47.034;7.376;2022-10-30T09:13:36;20.13;;;10.93;;
56373;SDS011;58212;47.034;7.376;2022-10-30T09:16:05;13.23;;;10.02;;
56373;SDS011;58212;47.034;7.376;2022-10-30T09:18:36;12.93;;;11.20;;
56373;SDS011;58212;47.034;7.376;2022-10-30T09:21:04;18.85;;;10.23;;
56373;SDS011;58212;47.034;7.376;2022-10-30T09:23:37;15.68;;;10.50;;
56373;SDS011;58212;47.034;7.376;2022-10-30T09:26:36;15.88;;;10.50;;
56373;SDS011;58212;47.034;7.376;2022-10-30T09:29:20;15.00;;;9.73;;
56373;SDS011;58212;47.034;7.376;2022-10-30T09:32:22;16.95;;;10.35;;
56373;SDS011;58212;47.034;7.376;2022-10-30T09:35:05;14.65;;;11.75;;
56373;SDS011;58212;47.034;7.376;2022-10-30T09:37:37;15.48;;;10.68;;
56373;SDS011;58212;47.034;7.376;2022-10-30T09:40:09;14.00;;;10.48;;
56373;SDS011;58212;47.034;7.376;2022-10-30T09:42:44;17.20;;;11.55;;
56373;SDS011;58212;47.034;7.376;2022-10-30T09:48:44;12.48;;;9.80;;
56373;SDS011;58212;47.034;7.376;2022-10-30T09:51:34;12.88;;;9.60;;
56373;SDS011;58212;47.034;7.376;2022-10-30T09:54:15;12.35;;;10.35;;
56373;SDS011;58212;47.034;7.376;2022-10-30T09:56:55;12.10;;;9.35;;
56373;SDS011;58212;47.034;7.376;2022-10-30T09:59:30;12.90;;;9.88;;
56373;SDS011;58212;47.034;7.376;2022-10-30T10:02:13;13.02;;;9.68;;
56373;SDS011;58212;47.034;7.376;2022-10-30T10:04:51;12.48;;;9.40;;
56373;SDS011;58212;47.034;7.376;2022-10-30T10:07:44;11.43;;;9.35;;
56373;SDS011;58212;47.034;7.376;2022-10-30T10:10:44;10.25;;;9.20;;
56373;SDS011;58212;47.034;7.376;2022-10-30T10:13:20;16.15;;;9.63;;
56373;SDS011;58212;47.034;7.376;2022-10-30T10:16:03;11.27;;;9.55;;
56373;SDS011;58212;47.034;7.376;2022-10-30T10:18:37;12.82;;;9.63;;
56373;SDS011;58212;47.034;7.376;2022-10-30T10:21:11;14.23;;;10.25;;
56373;SDS011;58212;47.034;7.376;2022-10-30T10:23:46;11.55;;;8.80;;
56373;SDS011;58212;47.034;7.376;2022-10-30T10:26:26;12.77;;;9.60;;
56373;SDS011;58212;47.034;7.376;2022-10-30T10:28:59;14.57;;;10.32;;
56373;SDS011;58212;47.034;7.376;2022-10-30T10:31:46;13.70;;;10.25;;
56373;SDS011;58212;47.034;7.376;2022-10-30T10:34:23;13.50;;;10.93;;
56373;SDS011;58212;47.034;7.376;2022-10-30T10:37:00;10.88;;;8.98;;
56373;SDS011;58212;47.034;7.376;2022-10-30T10:39:44;13.35;;;9.80;;
56373;SDS011;58212;47.034;7.376;2022-10-30T10:42:22;20.55;;;10.95;;
56373;SDS011;58212;47.034;7.376;2022-10-30T10:45:02;13.93;;;8.85;;
56373;SDS011;58212;47.034;7.376;2022-10-30T10:50:40;13.40;;;9.65;;
56373;SDS011;58212;47.034;7.376;2022-10-30T10:53:14;12.48;;;8.98;;
56373;SDS011;58212;47.034;7.376;2022-10-30T10:55:47;12.15;;;8.63;;
56373;SDS011;58212;47.034;7.376;2022-10-30T10:58:19;16.88;;;9.35;;
56373;SDS011;58212;47.034;7.376;2022-10-30T11:00:51;14.82;;;9.27;;
56373;SDS011;58212;47.034;7.376;2022-10-30T11:03:22;13.77;;;8.20;;
56373;SDS011;58212;47.034;7.376;2022-10-30T11:05:53;10.27;;;7.88;;
56373;SDS011;58212;47.034;7.376;2022-10-30T11:08:24;14.10;;;8.98;;
56373;SDS011;58212;47.034;7.376;2022-10-30T11:10:56;13.55;;;8.18;;
56373;SDS011;58212;47.034;7.376;2022-10-30T11:13:26;11.05;;;8.38;;
56373;SDS011;58212;47.034;7.376;2022-10-30T11:15:56;10.93;;;7.85;;
56373;SDS011;58212;47.034;7.376;2022-10-30T11:18:29;9.65;;;8.07;;
56373;SDS011;58212;47.034;7.376;2022-10-30T11:20:58;10.98;;;7.57;;
56373;SDS011;58212;47.034;7.376;2022-10-30T11:23:33;11.93;;;8.40;;
56373;SDS011;58212;47.034;7.376;2022-10-30T11:29:01;9.38;;;8.07;;
56373;SDS011;58212;47.034;7.376;2022-10-30T11:31:31;14.40;;;9.05;;
56373;SDS011;58212;47.034;7.376;2022-10-30T11:36:54;13.30;;;10.15;;
56373;SDS011;58212;47.034;7.376;2022-10-30T11:39:21;11.57;;;9.85;;
56373;SDS011;58212;47.034;7.376;2022-10-30T11:41:55;13.45;;;9.18;;
56373;SDS011;58212;47.034;7.376;2022-10-30T11:44:29;13.20;;;9.93;;
56373;SDS011;58212;47.034;7.376;2022-10-30T11:46:58;10.65;;;9.25;;
56373;SDS011;58212;47.034;7.376;2022-10-30T11:49:28;14.30;;;9.23;;
56373;SDS011;58212;47.034;7.376;2022-10-30T11:52:15;18.48;;;9.82;;
56373;SDS011;58212;47.034;7.376;2022-10-30T11:54:45;14.13;;;9.20;;
56373;SDS011;58212;47.034;7.376;2022-10-30T11:57:29;11.10;;;8.68;;
56373;SDS011;58212;47.034;7.376;2022-10-30T12:00:00;13.48;;;9.68;;
56373;SDS011;58212;47.034;7.376;2022-10-30T12:02:39;13.18;;;9.55;;
56373;SDS011;58212;47.034;7.376;2022-10-30T12:05:12;19.73;;;9.52;;
56373;SDS011;58212;47.034;7.376;2022-10-30T12:08:19;12.98;;;8.75;;
56373;SDS011;58212;47.034;7.376;2022-10-30T12:10:54;11.63;;;9.02;;
56373;SDS011;58212;47.034;7.376;2022-10-30T12:13:25;14.30;;;9.45;;
56373;SDS011;58212;47.034;7.376;2022-10-30T12:16:03;13.85;;;9.80;;
56373;SDS011;58212;47.034;7.376;2022-10-30T12:18:32;11.95;;;8.70;;
56373;SDS011;58212;47.034;7.376;2022-10-30T12:21:00;13.82;;;8.77;;
56373;SDS011;58212;47.034;7.376;2022-10-30T12:23:28;14.05;;;8.73;;
56373;SDS011;58212;47.034;7.376;2022-10-30T12:25:58;12.77;;;8.68;;
56373;SDS011;58212;47.034;7.376;2022-10-30T12:31:18;15.18;;;9.35;;
56373;SDS011;58212;47.034;7.376;2022-10-30T12:33:55;14.23;;;9.18;;
56373;SDS011;58212;47.034;7.376;2022-10-30T12:36:35;10.88;;;8.70;;
56373;SDS011;58212;47.034;7.376;2022-10-30T12:39:15;13.55;;;9.35;;
56373;SDS011;58212;47.034;7.376;2022-10-30T12:41:53;15.23;;;9.63;;
56373;SDS011;58212;47.034;7.376;2022-10-30T12:44:28;10.80;;;8.77;;
56373;SDS011;58212;47.034;7.376;2022-10-30T12:46:59;14.80;;;8.77;;
56373;SDS011;58212;47.034;7.376;2022-10-30T12:49:34;14.50;;;9.32;;
56373;SDS011;58212;47.034;7.376;2022-10-30T12:52:06;13.60;;;8.65;;
56373;SDS011;58212;47.034;7.376;2022-10-30T12:54:42;27.45;;;10.10;;
56373;SDS011;58212;47.034;7.376;2022-10-30T12:57:17;12.55;;;8.88;;
56373;SDS011;58212;47.034;7.376;2022-10-30T12:59:53;13.90;;;9.35;;
56373;SDS011;58212;47.034;7.376;2022-10-30T13:02:28;12.05;;;9.63;;
56373;SDS011;58212;47.034;7.376;2022-10-30T13:05:05;12.25;;;9.07;;
56373;SDS011;58212;47.034;7.376;2022-10-30T13:07:44;12.52;;;8.38;;
56373;SDS011;58212;47.034;7.376;2022-10-30T13:10:21;13.85;;;9.20;;
56373;SDS011;58212;47.034;7.376;2022-10-30T13:12:54;14.98;;;9.05;;
56373;SDS011;58212;47.034;7.376;2022-10-30T13:15:29;16.23;;;10.13;;
56373;SDS011;58212;47.034;7.376;2022-10-30T13:18:10;15.32;;;8.90;;
56373;SDS011;58212;47.034;7.376;2022-10-30T13:20:41;8.98;;;7.80;;
56373;SDS011;58212;47.034;7.376;2022-10-30T13:23:21;14.77;;;8.63;;
56373;SDS011;58212;47.034;7.376;2022-10-30T13:26:02;28.80;;;9.13;;
56373;SDS011;58212;47.034;7.376;2022-10-30T13:28:38;13.10;;;9.02;;
56373;SDS011;58212;47.034;7.376;2022-10-30T13:31:13;12.40;;;9.30;;
56373;SDS011;58212;47.034;7.376;2022-10-30T13:33:47;15.77;;;10.18;;
56373;SDS011;58212;47.034;7.376;2022-10-30T13:36:24;19.15;;;9.10;;
56373;SDS011;58212;47.034;7.376;2022-10-30T13:38:59;14.35;;;9.48;;
56373;SDS011;58212;47.034;7.376;2022-10-30T13:41:34;11.25;;;8.63;;
56373;SDS011;58212;47.034;7.376;2022-10-30T13:44:12;15.50;;;9.25;;
56373;SDS011;58212;47.034;7.376;2022-10-30T13:46:54;16.88;;;8.80;;
56373;SDS011;58212;47.034;7.376;2022-10-30T13:49:37;15.07;;;8.90;;
56373;SDS011;58212;47.034;7.376;2022-10-30T13:52:21;11.18;;;8.85;;
56373;SDS011;58212;47.034;7.376;2022-10-30T13:54:52;11.88;;;8.60;;
56373;SDS011;58212;47.034;7.376;2022-10-30T13:57:25;13.75;;;8.40;;
56373;SDS011;58212;47.034;7.376;2022-10-30T14:00:00;11.75;;;8.60;;
56373;SDS011;58212;47.034;7.376;2022-10-30T14:02:44;30.85;;;8.90;;
56373;SDS011;58212;47.034;7.376;2022-10-30T14:05:30;16.17;;;8.55;;
56373;SDS011;58212;47.034;7.376;2022-10-30T14:08:05;27.33;;;8.90;;
56373;SDS011;58212;47.034;7.376;2022-10-30T14:10:41;24.10;;;9.20;;
56373;SDS011;58212;47.034;7.376;2022-10-30T14:13:13;13.70;;;8.52;;
56373;SDS011;58212;47.034;7.376;2022-10-30T14:15:46;11.85;;;7.97;;
56373;SDS011;58212;47.034;7.376;2022-10-30T14:18:23;14.77;;;8.60;;
56373;SDS011;58212;47.034;7.376;2022-10-30T14:24:15;18.73;;;8.77;;
56373;SDS011;58212;47.034;7.376;2022-10-30T14:26:47;15.07;;;7.80;;
56373;SDS011;58212;47.034;7.376;2022-10-30T14:35:30;14.90;;;8.25;;
56373;SDS011;58212;47.034;7.376;2022-10-30T14:47:28;15.27;;;9.10;;
56373;SDS011;58212;47.034;7.376;2022-10-30T14:50:18;13.35;;;7.88;;
56373;SDS011;58212;47.034;7.376;2022-10-30T14:53:04;13.68;;;9.20;;
56373;SDS011;58212;47.034;7.376;2022-10-30T14:55:49;15.10;;;8.13;;
56373;SDS011;58212;47.034;7.376;2022-10-30T14:58:23;15.63;;;9.23;;
56373;SDS011;58212;47.034;7.376;2022-10-30T15:03:49;16.38;;;7.43;;
56373;SDS011;58212;47.034;7.376;2022-10-30T15:06:25;14.13;;;7.55;;
56373;SDS011;58212;47.034;7.376;2022-10-30T15:09:04;12.88;;;7.07;;
56373;SDS011;58212;47.034;7.376;2022-10-30T15:11:46;14.40;;;7.28;;
56373;SDS011;58212;47.034;7.376;2022-10-30T15:14:27;8.50;;;7.13;;
56373;SDS011;58212;47.034;7.376;2022-10-30T15:16:57;10.93;;;6.80;;
56373;SDS011;58212;47.034;7.376;2022-10-30T15:19:24;14.02;;;6.50;;
56373;SDS011;58212;47.034;7.376;2022-10-30T15:21:53;11.27;;;6.80;;
56373;SDS011;58212;47.034;7.376;2022-10-30T15:24:24;12.40;;;7.05;;
56373;SDS011;58212;47.034;7.376;2022-10-30T15:26:53;14.68;;;6.90;;
56373;SDS011;58212;47.034;7.376;2022-10-30T15:29:23;12.60;;;6.43;;
56373;SDS011;58212;47.034;7.376;2022-10-30T15:31:58;10.60;;;6.10;;
56373;SDS011;58212;47.034;7.376;2022-10-30T15:34:26;8.40;;;5.55;;
56373;SDS011;58212;47.034;7.376;2022-10-30T15:36:53;12.65;;;6.15;;
56373;SDS011;58212;47.034;7.376;2022-10-30T15:39:21;13.02;;;5.93;;
56373;SDS011;58212;47.034;7.376;2022-10-30T15:41:52;10.80;;;6.32;;
56373;SDS011;58212;47.034;7.376;2022-10-30T15:44:23;13.98;;;5.97;;
56373;SDS011;58212;47.034;7.376;2022-10-30T15:46:53;11.82;;;5.63;;
56373;SDS011;58212;47.034;7.376;2022-10-30T15:49:25;11.40;;;5.95;;
56373;SDS011;58212;47.034;7.376;2022-10-30T15:51:55;8.15;;;5.80;;
56373;SDS011;58212;47.034;7.376;2022-10-30T15:54:22;10.15;;;5.57;;
56373;SDS011;58212;47.034;7.376;2022-10-30T15:56:54;9.88;;;5.60;;